createdAt,value
2017-12-16T00:01:44.433Z,99.90
2017-12-16T00:04:13.856Z,99.90
2017-12-16T00:06:43.277Z,99.90
2017-12-16T00:09:12.547Z,99.90
2017-12-16T00:11:41.977Z,99.90
2017-12-16T00:14:11.276Z,99.90
2017-12-16T00:16:41.314Z,99.90
2017-12-16T00:19:10.604Z,99.90
2017-12-16T00:21:40.606Z,99.90
2017-12-16T00:24:09.844Z,99.90
2017-12-16T00:26:39.911Z,99.90
2017-12-16T00:29:09.153Z,99.90
2017-12-16T00:31:38.552Z,99.90
2017-12-16T00:34:07.794Z,99.90
2017-12-16T00:36:37.085Z,99.90
2017-12-16T00:39:06.323Z,99.90
2017-12-16T00:41:35.667Z,99.90
2017-12-16T00:44:04.924Z,99.90
2017-12-16T00:46:34.225Z,99.90
2017-12-16T00:49:03.609Z,99.90
2017-12-16T00:51:32.910Z,99.90
2017-12-16T00:54:02.171Z,99.90
2017-12-16T00:56:31.397Z,99.90
2017-12-16T00:59:00.664Z,99.90
2017-12-16T01:01:29.908Z,99.90
2017-12-16T01:03:59.155Z,99.90
2017-12-16T01:06:29.190Z,99.90
2017-12-16T01:08:59.309Z,99.90
2017-12-16T01:11:28.536Z,99.90
2017-12-16T01:13:57.779Z,99.90
2017-12-16T01:16:27.274Z,99.90
2017-12-16T01:18:56.618Z,99.90
2017-12-16T01:21:25.864Z,99.90
2017-12-16T01:23:55.936Z,99.90
2017-12-16T01:26:25.150Z,99.90
2017-12-16T01:28:54.427Z,99.90
2017-12-16T01:31:23.784Z,99.90
2017-12-16T01:40:19.366Z,99.90
2017-12-16T01:42:49.390Z,99.90
2017-12-16T01:45:18.615Z,99.90
2017-12-16T01:47:47.865Z,99.90
2017-12-16T01:50:17.090Z,99.90
2017-12-16T01:52:46.318Z,99.90
2017-12-16T01:55:15.613Z,99.90
2017-12-16T01:57:44.894Z,99.90
2017-12-16T02:00:14.190Z,99.90
2017-12-16T02:02:43.435Z,99.90
2017-12-16T02:05:12.665Z,99.90
2017-12-16T02:07:42.195Z,99.90
2017-12-16T02:10:11.426Z,99.90
2017-12-16T02:12:40.749Z,99.90
2017-12-16T02:15:10.215Z,99.90
2017-12-16T02:17:40.155Z,99.90
2017-12-16T02:20:09.382Z,99.90
2017-12-16T02:22:38.615Z,99.90
2017-12-16T02:25:07.882Z,99.90
2017-12-16T02:27:37.129Z,99.90
2017-12-16T02:30:06.369Z,99.90
2017-12-16T02:32:35.614Z,99.90
2017-12-16T02:35:04.947Z,99.90
2017-12-16T02:37:34.347Z,99.90
2017-12-16T02:40:03.626Z,99.90
2017-12-16T02:42:33.093Z,99.90
2017-12-16T02:45:02.412Z,99.90
2017-12-16T02:47:31.627Z,99.90
2017-12-16T02:50:00.880Z,99.90
2017-12-16T02:52:30.112Z,99.90
2017-12-16T02:54:59.551Z,99.90
2017-12-16T02:57:29.585Z,99.90
2017-12-16T02:59:58.958Z,99.90
2017-12-16T03:02:28.256Z,99.90
2017-12-16T03:04:57.512Z,99.90
2017-12-16T03:07:26.789Z,99.90
2017-12-16T03:09:56.030Z,99.90
2017-12-16T03:12:25.499Z,99.90
2017-12-16T03:14:54.722Z,99.90
2017-12-16T03:17:24.180Z,99.90
2017-12-16T03:19:53.413Z,99.90
2017-12-16T03:22:22.670Z,99.90
2017-12-16T03:24:51.913Z,99.90
2017-12-16T03:27:21.141Z,99.90
2017-12-16T03:29:50.383Z,99.90
2017-12-16T03:32:20.414Z,99.90
2017-12-16T03:34:49.622Z,99.90
2017-12-16T03:37:19.269Z,99.90
2017-12-16T03:39:48.501Z,99.90
2017-12-16T03:42:17.738Z,99.90
2017-12-16T03:44:46.991Z,99.90
2017-12-16T03:47:16.302Z,99.90
2017-12-16T03:49:45.570Z,99.90
2017-12-16T03:52:15.601Z,99.90
2017-12-16T03:54:44.846Z,99.90
2017-12-16T03:57:14.126Z,99.90
2017-12-16T03:59:43.353Z,99.90
2017-12-16T04:02:12.620Z,99.90
2017-12-16T04:04:41.917Z,99.90
2017-12-16T04:07:11.142Z,99.90
2017-12-16T04:09:41.153Z,99.90
2017-12-16T04:12:10.401Z,99.90
2017-12-16T04:14:39.747Z,99.90
2017-12-16T04:17:08.980Z,99.90
2017-12-16T04:19:38.231Z,99.90
2017-12-16T04:22:07.474Z,99.90
2017-12-16T04:24:36.709Z,99.90
2017-12-16T04:27:05.967Z,99.90
2017-12-16T04:29:35.200Z,99.90
2017-12-16T04:32:04.541Z,99.90
2017-12-16T04:34:33.916Z,99.90
2017-12-16T04:37:03.145Z,99.90
2017-12-16T04:39:32.391Z,99.90
2017-12-16T04:42:01.637Z,99.90
2017-12-16T04:44:30.894Z,99.90
2017-12-16T04:47:00.130Z,99.90
2017-12-16T04:49:29.374Z,99.90
2017-12-16T04:51:58.608Z,99.90
2017-12-16T04:54:28.048Z,99.90
2017-12-16T04:56:57.266Z,99.90
2017-12-16T04:59:26.541Z,99.90
2017-12-16T05:01:55.780Z,99.90
2017-12-16T05:04:25.341Z,99.90
2017-12-16T05:06:54.673Z,99.90
2017-12-16T05:09:23.902Z,99.90
2017-12-16T05:11:53.175Z,99.90
2017-12-16T05:14:23.190Z,99.90
2017-12-16T05:16:52.505Z,99.90
2017-12-16T05:19:22.353Z,99.90
2017-12-16T05:21:51.987Z,99.90
2017-12-16T05:24:21.215Z,99.90
2017-12-16T05:26:50.487Z,99.90
2017-12-16T05:29:20.229Z,99.90
2017-12-16T05:31:49.473Z,99.90
2017-12-16T05:34:18.718Z,99.90
2017-12-16T05:36:48.729Z,99.90
2017-12-16T05:39:18.152Z,99.90
2017-12-16T05:41:47.371Z,99.90
2017-12-16T05:44:16.621Z,99.90
2017-12-16T05:46:45.877Z,99.90
2017-12-16T05:49:15.556Z,99.90
2017-12-16T05:51:45.577Z,99.90
2017-12-16T05:54:14.845Z,99.90
2017-12-16T05:56:44.190Z,99.90
2017-12-16T05:59:14.326Z,99.90
2017-12-16T06:01:43.700Z,99.90
2017-12-16T06:04:13.765Z,99.90
2017-12-16T06:06:42.995Z,99.90
2017-12-16T06:09:12.311Z,99.90
2017-12-16T06:11:41.536Z,99.90
2017-12-16T06:14:11.657Z,99.90
2017-12-16T06:16:40.910Z,99.90
2017-12-16T06:19:10.183Z,99.90
2017-12-16T06:21:39.464Z,99.90
2017-12-16T06:24:08.698Z,99.90
2017-12-16T06:26:38.951Z,99.90
2017-12-16T06:29:08.162Z,99.90
2017-12-16T06:31:37.407Z,99.90
2017-12-16T06:34:06.648Z,99.90
2017-12-16T06:36:35.889Z,99.90
2017-12-16T06:39:05.137Z,99.90
2017-12-16T06:41:34.420Z,99.90
2017-12-16T06:44:03.661Z,99.90
2017-12-16T06:46:32.917Z,99.90
2017-12-16T06:49:02.175Z,99.90
2017-12-16T06:51:31.579Z,99.90
2017-12-16T06:54:01.578Z,99.90
2017-12-16T06:56:30.921Z,99.90
2017-12-16T06:59:00.147Z,99.90
2017-12-16T07:01:29.594Z,99.90
2017-12-16T07:03:58.829Z,99.90
2017-12-16T07:06:28.093Z,99.90
2017-12-16T07:08:57.340Z,99.90
2017-12-16T07:11:26.601Z,99.90
2017-12-16T07:13:56.690Z,99.90
2017-12-16T07:16:25.941Z,99.90
2017-12-16T07:18:55.219Z,99.90
2017-12-16T07:21:24.475Z,99.90
2017-12-16T07:23:53.900Z,99.90
2017-12-16T07:26:23.133Z,99.90
2017-12-16T07:28:52.514Z,99.90
2017-12-16T07:31:21.786Z,99.90
2017-12-16T07:33:51.050Z,99.90
2017-12-16T07:36:20.283Z,99.90
2017-12-16T07:38:49.541Z,99.90
2017-12-16T07:41:19.552Z,99.90
2017-12-16T07:43:48.816Z,99.90
2017-12-16T07:46:18.060Z,99.90
2017-12-16T07:48:48.119Z,99.90
2017-12-16T07:51:17.544Z,99.90
2017-12-16T07:53:47.637Z,99.90
2017-12-16T07:56:17.678Z,99.90
2017-12-16T07:58:46.930Z,99.90
2017-12-16T08:01:16.194Z,99.90
2017-12-16T08:03:45.461Z,99.90
2017-12-16T08:06:14.724Z,99.90
2017-12-16T08:08:43.975Z,99.90
2017-12-16T08:11:13.238Z,99.90
2017-12-16T08:13:43.322Z,99.90
2017-12-16T08:16:12.556Z,99.90
2017-12-16T08:18:41.817Z,99.90
2017-12-16T08:21:11.069Z,99.90
2017-12-16T08:23:40.335Z,99.90
2017-12-16T08:26:09.575Z,99.90
2017-12-16T08:28:38.810Z,99.90
2017-12-16T08:31:08.094Z,99.90
2017-12-16T08:33:37.356Z,99.90
2017-12-16T08:36:06.589Z,99.90
2017-12-16T08:38:35.867Z,99.90
2017-12-16T08:41:05.085Z,99.90
2017-12-16T08:43:34.997Z,99.90
2017-12-16T08:46:04.453Z,99.90
2017-12-16T08:48:33.759Z,99.90
2017-12-16T08:51:02.993Z,99.90
2017-12-16T08:53:32.349Z,99.90
2017-12-16T08:56:01.612Z,99.90
2017-12-16T08:58:30.823Z,99.90
2017-12-16T09:01:00.738Z,99.90
2017-12-16T09:03:29.985Z,99.90
2017-12-16T09:05:59.235Z,99.90
2017-12-16T09:08:28.633Z,99.90
2017-12-16T09:10:57.989Z,99.90
2017-12-16T09:13:27.219Z,99.90
2017-12-16T09:15:56.493Z,99.90
2017-12-16T09:18:26.572Z,99.70
2017-12-16T09:20:55.969Z,99.80
2017-12-16T09:23:26.042Z,99.20
2017-12-16T09:25:56.062Z,99.80
2017-12-16T09:28:25.346Z,99.70
2017-12-16T09:30:56.100Z,98.90
2017-12-16T09:33:25.358Z,98.90
2017-12-16T09:35:55.122Z,99.70
2017-12-16T09:38:24.429Z,99.90
2017-12-16T09:40:53.709Z,99.90
2017-12-16T09:43:23.124Z,99.90
2017-12-16T09:45:53.192Z,99.90
2017-12-16T09:48:22.679Z,99.90
2017-12-16T09:50:52.799Z,99.90
2017-12-16T09:53:22.809Z,99.90
2017-12-16T09:55:52.062Z,99.90
2017-12-16T09:58:21.368Z,99.70
2017-12-16T10:00:50.925Z,99.90
2017-12-16T10:03:20.163Z,99.80
2017-12-16T10:05:49.421Z,99.90
2017-12-16T10:08:18.666Z,99.90
2017-12-16T10:10:47.962Z,99.90
2017-12-16T10:13:17.224Z,99.90
2017-12-16T10:15:47.330Z,99.90
2017-12-16T10:18:17.373Z,98.50
2017-12-16T10:20:46.622Z,98.50
2017-12-16T10:23:15.908Z,98.50
2017-12-16T10:25:45.793Z,99.00
2017-12-16T10:28:15.063Z,98.80
2017-12-16T10:30:45.089Z,98.60
2017-12-16T10:33:14.408Z,98.40
2017-12-16T10:35:43.633Z,97.60
2017-12-16T10:38:12.905Z,98.00
2017-12-16T10:40:42.913Z,95.40
2017-12-16T10:43:12.199Z,95.40
2017-12-16T10:45:41.542Z,90.10
2017-12-16T10:48:10.835Z,81.90
2017-12-16T10:50:40.095Z,80.10
2017-12-16T10:53:09.347Z,79.50
2017-12-16T10:55:38.782Z,84.10
2017-12-16T10:58:08.805Z,89.70
2017-12-16T11:00:40.021Z,89.30
2017-12-16T11:03:11.019Z,90.20
2017-12-16T11:05:42.344Z,89.20
2017-12-16T11:08:14.360Z,90.70
2017-12-16T11:10:44.901Z,92.20
2017-12-16T11:13:16.610Z,92.30
2017-12-16T11:15:46.579Z,92.20
2017-12-16T11:18:15.802Z,90.60
2017-12-16T11:20:45.789Z,92.90
2017-12-16T11:23:16.554Z,91.90
2017-12-16T11:25:46.553Z,91.80
2017-12-16T11:28:15.791Z,91.90
2017-12-16T11:30:45.041Z,91.00
2017-12-16T11:33:14.363Z,92.30
2017-12-16T11:35:43.718Z,92.20
2017-12-16T11:38:12.952Z,91.50
2017-12-16T11:40:42.201Z,92.60
2017-12-16T11:43:11.586Z,91.50
2017-12-16T11:45:40.874Z,92.90
2017-12-16T11:48:10.234Z,93.30
2017-12-16T11:50:40.236Z,92.80
2017-12-16T11:53:09.481Z,93.10
2017-12-16T11:55:38.737Z,93.60
2017-12-16T11:58:08.174Z,94.00
2017-12-16T12:00:37.635Z,92.20
2017-12-16T12:03:06.861Z,93.90
2017-12-16T12:05:36.136Z,93.50
2017-12-16T12:08:06.238Z,92.30
2017-12-16T12:10:36.281Z,92.60
2017-12-16T12:13:06.517Z,92.30
2017-12-16T12:15:35.883Z,92.10
2017-12-16T12:18:05.139Z,92.60
2017-12-16T12:20:34.369Z,93.00
2017-12-16T12:23:03.638Z,93.20
2017-12-16T12:25:32.942Z,94.20
2017-12-16T12:28:02.295Z,94.40
2017-12-16T12:30:31.523Z,94.50
2017-12-16T12:33:00.810Z,94.60
2017-12-16T12:35:30.053Z,95.00
2017-12-16T12:37:59.564Z,95.00
2017-12-16T12:40:28.856Z,93.90
2017-12-16T12:42:58.098Z,93.40
2017-12-16T12:45:27.442Z,92.90
2017-12-16T12:47:56.678Z,93.50
2017-12-16T12:50:25.958Z,93.00
2017-12-16T12:52:55.187Z,92.60
2017-12-16T12:55:24.442Z,92.60
2017-12-16T12:57:53.749Z,92.60
2017-12-16T13:00:23.054Z,92.70
2017-12-16T13:02:53.077Z,92.40
2017-12-16T13:05:22.598Z,92.40
2017-12-16T13:07:52.142Z,91.40
2017-12-16T13:10:21.538Z,91.40
2017-12-16T13:12:50.784Z,92.20
2017-12-16T13:15:20.048Z,92.70
2017-12-16T13:17:49.281Z,93.10
2017-12-16T13:20:18.642Z,93.20
2017-12-16T13:22:48.041Z,93.20
2017-12-16T13:25:17.282Z,93.50
2017-12-16T13:27:47.366Z,92.80
2017-12-16T13:30:16.565Z,92.80
2017-12-16T13:32:45.831Z,92.70
2017-12-16T13:35:15.048Z,93.10
2017-12-16T13:37:44.309Z,94.80
2017-12-16T13:40:13.626Z,94.20
2017-12-16T13:42:42.885Z,94.20
2017-12-16T13:45:12.123Z,95.60
2017-12-16T13:47:41.370Z,95.40
2017-12-16T13:50:10.607Z,95.20
2017-12-16T13:52:39.861Z,96.00
2017-12-16T13:55:09.140Z,94.90
2017-12-16T13:57:38.405Z,96.20
2017-12-16T14:00:08.422Z,95.20
2017-12-16T14:02:37.650Z,95.10
2017-12-16T14:05:06.922Z,94.50
2017-12-16T14:07:36.929Z,94.40
2017-12-16T14:10:06.941Z,93.80
2017-12-16T14:12:36.178Z,93.80
2017-12-16T14:15:05.458Z,94.80
2017-12-16T14:17:34.874Z,94.50
2017-12-16T14:20:04.097Z,95.30
2017-12-16T14:22:33.467Z,95.40
2017-12-16T14:25:03.582Z,96.00
2017-12-16T14:27:32.919Z,95.80
2017-12-16T14:30:02.178Z,95.80
2017-12-16T14:32:31.502Z,96.30
2017-12-16T14:35:01.536Z,96.60
2017-12-16T14:37:31.602Z,96.60
2017-12-16T14:40:00.856Z,97.20
2017-12-16T14:42:30.080Z,97.40
2017-12-16T14:44:59.434Z,97.40
2017-12-16T14:47:28.661Z,97.60
2017-12-16T14:49:57.919Z,97.80
2017-12-16T14:52:27.147Z,98.20
2017-12-16T14:54:57.264Z,98.50
2017-12-16T14:57:27.579Z,98.50
2017-12-16T14:59:58.477Z,98.50
2017-12-16T15:02:27.985Z,98.70
2017-12-16T15:04:57.226Z,99.10
2017-12-16T15:07:26.628Z,99.50
2017-12-16T15:09:56.628Z,99.90
2017-12-16T15:12:27.477Z,99.90
2017-12-16T15:14:56.695Z,99.90
2017-12-16T15:17:25.945Z,99.90
2017-12-16T15:19:55.195Z,99.90
2017-12-16T15:22:25.223Z,99.90
2017-12-16T15:24:54.474Z,99.90
2017-12-16T15:27:23.867Z,99.90
2017-12-16T15:29:53.117Z,99.90
2017-12-16T15:32:22.377Z,99.90
2017-12-16T15:34:51.673Z,99.90
2017-12-16T15:37:21.029Z,99.90
2017-12-16T15:39:50.242Z,99.90
2017-12-16T15:42:20.570Z,99.90
2017-12-16T15:44:49.800Z,99.90
2017-12-16T15:47:19.130Z,99.90
2017-12-16T15:49:48.459Z,99.90
2017-12-16T15:52:18.482Z,99.90
2017-12-16T15:54:47.753Z,99.90
2017-12-16T15:57:18.487Z,99.90
2017-12-16T15:59:48.509Z,99.90
2017-12-16T16:02:17.732Z,99.90
2017-12-16T16:04:47.073Z,99.90
2017-12-16T16:07:18.298Z,99.90
2017-12-16T16:09:47.511Z,99.90
2017-12-16T16:12:16.754Z,99.90
2017-12-16T16:14:46.842Z,99.90
2017-12-16T16:17:16.179Z,99.90
2017-12-16T16:19:46.489Z,99.90
2017-12-16T16:22:15.720Z,99.90
2017-12-16T16:24:44.980Z,99.90
2017-12-16T16:27:14.412Z,99.90
2017-12-16T16:29:44.418Z,99.90
2017-12-16T16:32:15.218Z,99.90
2017-12-16T16:34:44.504Z,99.90
2017-12-16T16:37:13.750Z,99.90
2017-12-16T16:39:44.493Z,99.90
2017-12-16T16:42:14.522Z,99.90
2017-12-16T16:44:43.881Z,99.90
2017-12-16T16:47:13.318Z,99.90
2017-12-16T16:49:42.647Z,99.90
2017-12-16T16:52:12.755Z,99.90
2017-12-16T16:54:42.856Z,99.90
2017-12-16T16:57:12.088Z,99.90
2017-12-16T16:59:41.470Z,99.90
2017-12-16T17:02:10.751Z,99.90
2017-12-16T17:04:39.992Z,99.90
2017-12-16T17:07:09.230Z,99.90
2017-12-16T17:09:38.695Z,99.90
2017-12-16T17:12:08.007Z,99.90
2017-12-16T17:14:38.133Z,99.90
2017-12-16T17:17:07.407Z,99.90
2017-12-16T17:19:37.442Z,99.90
2017-12-16T17:22:06.818Z,99.90
2017-12-16T17:24:36.086Z,99.90
2017-12-16T17:27:05.329Z,99.90
2017-12-16T17:29:34.574Z,99.90
2017-12-16T17:32:03.865Z,99.90
2017-12-16T17:34:33.213Z,99.90
2017-12-16T17:37:02.491Z,99.90
2017-12-16T17:39:31.722Z,99.90
2017-12-16T17:42:01.278Z,99.90
2017-12-16T17:44:30.508Z,99.90
2017-12-16T17:46:59.917Z,99.90
2017-12-16T17:49:29.138Z,99.90
2017-12-16T17:51:58.510Z,99.90
2017-12-16T17:54:27.757Z,99.90
2017-12-16T17:56:57.000Z,99.90
2017-12-16T17:59:26.252Z,99.90
2017-12-16T18:01:56.487Z,99.90
2017-12-16T18:04:25.710Z,99.90
2017-12-16T18:06:54.975Z,99.90
2017-12-16T18:09:24.210Z,99.90
2017-12-16T18:11:53.465Z,99.90
2017-12-16T18:14:23.473Z,99.90
2017-12-16T18:16:53.490Z,99.90
2017-12-16T18:19:23.013Z,99.90
2017-12-16T18:21:52.307Z,99.90
2017-12-16T18:24:21.622Z,99.90
2017-12-16T18:26:51.625Z,99.90
2017-12-16T18:29:20.874Z,99.90
2017-12-16T18:31:50.122Z,99.90
2017-12-16T18:34:19.426Z,99.90
2017-12-16T18:36:48.725Z,99.90
2017-12-16T18:39:18.071Z,99.90
2017-12-16T18:41:47.300Z,99.90
2017-12-16T18:44:16.566Z,99.90
2017-12-16T18:46:45.833Z,99.90
2017-12-16T18:49:15.093Z,99.90
2017-12-16T18:51:44.338Z,99.90
2017-12-16T18:54:13.582Z,99.90
2017-12-16T18:56:42.842Z,99.90
2017-12-16T18:59:12.078Z,99.90
2017-12-16T19:01:41.314Z,99.90
2017-12-16T19:04:10.681Z,99.90
2017-12-16T19:06:39.924Z,99.90
2017-12-16T19:09:09.363Z,99.90
2017-12-16T19:11:39.393Z,99.90
2017-12-16T19:14:08.782Z,99.90
2017-12-16T19:16:38.808Z,99.90
2017-12-16T19:19:08.189Z,99.90
2017-12-16T19:21:37.462Z,99.90
2017-12-16T19:24:06.710Z,99.90
2017-12-16T19:26:35.937Z,99.90
2017-12-16T19:29:05.280Z,99.90
2017-12-16T19:31:34.505Z,99.90
2017-12-16T19:34:04.535Z,99.90
2017-12-16T19:36:34.150Z,99.90
2017-12-16T19:39:03.409Z,99.90
2017-12-16T19:41:32.649Z,99.90
2017-12-16T19:44:01.894Z,99.90
2017-12-16T19:46:31.152Z,99.90
2017-12-16T19:49:00.401Z,99.90
2017-12-16T19:51:29.670Z,99.90
2017-12-16T19:53:58.929Z,99.90
2017-12-16T19:56:28.176Z,99.90
2017-12-16T19:58:57.430Z,99.90
2017-12-16T20:01:27.446Z,99.90
2017-12-16T20:03:56.674Z,99.90
2017-12-16T20:06:25.926Z,99.90
2017-12-16T20:08:55.150Z,99.90
2017-12-16T20:11:24.429Z,99.90
2017-12-16T20:13:53.693Z,99.90
2017-12-16T20:16:22.985Z,99.90
2017-12-16T20:18:52.230Z,99.90
2017-12-16T20:21:21.742Z,99.90
2017-12-16T20:23:51.009Z,99.90
2017-12-16T20:26:20.266Z,99.90
2017-12-16T20:28:49.502Z,99.90
2017-12-16T20:31:18.746Z,99.90
2017-12-16T20:33:48.769Z,99.90
2017-12-16T20:36:18.097Z,99.90
2017-12-16T20:38:47.463Z,99.90
2017-12-16T20:41:16.877Z,99.90
2017-12-16T20:43:46.308Z,99.90
2017-12-16T20:46:15.526Z,99.90
2017-12-16T20:48:44.794Z,99.90
2017-12-16T20:51:14.065Z,99.90
2017-12-16T20:53:43.306Z,99.90
2017-12-16T20:56:12.665Z,99.90
2017-12-16T20:58:41.942Z,99.90
2017-12-16T21:01:11.246Z,99.90
2017-12-16T21:03:40.501Z,99.90
2017-12-16T21:06:09.910Z,99.90
2017-12-16T21:08:39.149Z,99.90
2017-12-16T21:11:08.401Z,99.90
2017-12-16T21:13:37.729Z,99.90
2017-12-16T21:16:07.016Z,99.90
2017-12-16T21:18:37.787Z,99.90
2017-12-16T21:21:07.232Z,99.90
2017-12-16T21:23:36.477Z,99.90
2017-12-16T21:26:06.588Z,99.90
2017-12-16T21:28:35.850Z,99.90
2017-12-16T21:31:05.110Z,99.90
2017-12-16T21:33:35.118Z,99.90
2017-12-16T21:36:04.372Z,99.90
2017-12-16T21:38:33.613Z,99.90
2017-12-16T21:41:03.677Z,99.90
2017-12-16T21:43:32.997Z,99.90
2017-12-16T21:46:02.260Z,99.90
2017-12-16T21:48:31.617Z,99.90
2017-12-16T21:51:00.939Z,99.90
2017-12-16T21:53:30.422Z,99.90
2017-12-16T21:55:59.659Z,99.90
2017-12-16T21:58:28.999Z,99.90
2017-12-16T22:00:58.416Z,99.90
2017-12-16T22:03:27.654Z,99.90
2017-12-16T22:05:56.897Z,99.90
2017-12-16T22:08:26.151Z,99.90
2017-12-16T22:10:55.402Z,99.90
2017-12-16T22:13:24.717Z,99.90
2017-12-16T22:15:53.978Z,99.90
2017-12-16T22:18:23.488Z,99.90
2017-12-16T22:20:53.485Z,99.90
2017-12-16T22:23:23.497Z,99.90
2017-12-16T22:25:52.762Z,99.90
2017-12-16T22:28:21.977Z,99.90
2017-12-16T22:30:51.990Z,99.90
2017-12-16T22:33:21.241Z,99.90
2017-12-16T22:35:50.490Z,99.90
2017-12-16T22:38:20.526Z,99.90
2017-12-16T22:40:49.785Z,99.90
2017-12-16T22:43:19.014Z,99.90
2017-12-16T22:45:48.276Z,99.90
2017-12-16T22:48:18.311Z,99.90
2017-12-16T22:50:47.545Z,99.90
2017-12-16T22:53:16.783Z,99.90
2017-12-16T22:55:46.055Z,99.90
2017-12-16T22:58:15.385Z,99.90
2017-12-16T23:00:44.676Z,99.90
2017-12-16T23:03:13.909Z,99.90
2017-12-16T23:05:43.953Z,99.90
2017-12-16T23:08:13.517Z,99.90
2017-12-16T23:10:42.758Z,99.90
2017-12-16T23:13:12.152Z,99.90
2017-12-16T23:15:41.389Z,99.90
2017-12-16T23:18:10.638Z,99.90
2017-12-16T23:20:39.959Z,99.90
2017-12-16T23:23:09.970Z,99.90
2017-12-16T23:25:39.210Z,99.90
2017-12-16T23:28:08.474Z,99.90
2017-12-16T23:30:38.474Z,99.90
2017-12-16T23:33:09.383Z,99.90
2017-12-16T23:35:38.610Z,99.90
2017-12-16T23:38:07.851Z,99.90
2017-12-16T23:40:37.113Z,99.90
2017-12-16T23:43:06.338Z,99.90
2017-12-16T23:45:35.617Z,99.90
2017-12-16T23:48:04.924Z,99.90
2017-12-16T23:50:34.163Z,99.90
2017-12-16T23:53:03.606Z,99.90
2017-12-16T23:55:32.829Z,99.90
2017-12-16T23:58:02.957Z,99.90
